Terminal Aerodrome Forecast
Issued by NWS

Home | Current Version | Previous Version | Text Only | Print | Product List | Glossary On
Versions: 1 2 3 4 5 6 7 8 9 10 11 12 13 14 15 16 17 18 19
000
FTUS45 KSLC 222012 AAA
TAFPVU
TAF AMD
KPVU 222012Z 2220/2318 15004KT P6SM VCSH BKN005 OVC035
     FM222300 30010KT 1SM -SN BR BKN004 OVC010
     FM230300 32005KT 4SM -SN BR OVC015
     FM230600 30008KT P6SM VCSH BKN025
     FM231400 31008KT 2SM -SN BR BKN011 OVC025=

USA.gov is the U.S. government's official web portal to all federal, state and local government web resources and services.